createdAt,value
2022-09-24T00:02:20.930Z,5.40
2022-09-24T00:04:49.493Z,7.50
2022-09-24T00:07:17.957Z,5.40
2022-09-24T00:09:48.419Z,6.73
2022-09-24T00:12:17.192Z,9.13
2022-09-24T00:14:45.713Z,6.87
2022-09-24T00:17:14.127Z,5.37
2022-09-24T00:19:42.738Z,6.30
2022-09-24T00:22:11.143Z,9.00
2022-09-24T00:24:57.571Z,9.00
2022-09-24T00:27:28.685Z,6.17
2022-09-24T00:29:57.177Z,7.33
2022-09-24T00:32:25.578Z,7.30
2022-09-24T00:34:54.204Z,7.90
2022-09-24T00:37:22.649Z,6.63
2022-09-24T00:39:51.110Z,9.73
2022-09-24T00:42:20.103Z,7.20
2022-09-24T00:44:55.376Z,6.43
2022-09-24T00:47:30.277Z,6.80
2022-09-24T00:50:06.267Z,8.90
2022-09-24T00:52:35.525Z,7.70
2022-09-24T00:55:04.230Z,8.10
2022-09-24T00:57:32.949Z,8.10
2022-09-24T01:00:03.174Z,10.03
2022-09-24T01:02:32.508Z,18.17
2022-09-24T01:05:01.105Z,10.07
2022-09-24T01:07:29.693Z,7.80
2022-09-24T01:09:58.448Z,13.47
2022-09-24T01:12:33.510Z,6.70
2022-09-24T01:15:13.271Z,7.33
2022-09-24T01:17:47.797Z,7.40
2022-09-24T01:20:45.378Z,13.67
2022-09-24T01:23:32.172Z,6.80
2022-09-24T01:26:19.106Z,9.10
2022-09-24T01:29:06.290Z,6.97
2022-09-24T01:31:41.648Z,8.10
2022-09-24T01:34:12.416Z,7.67
2022-09-24T01:36:41.637Z,8.63
2022-09-24T01:39:10.235Z,8.27
2022-09-24T01:41:39.247Z,7.87
2022-09-24T01:44:07.931Z,9.40
2022-09-24T01:46:39.889Z,8.50
2022-09-24T01:49:08.589Z,8.07
2022-09-24T01:51:42.081Z,7.30
2022-09-24T01:54:13.392Z,6.27
2022-09-24T01:56:44.953Z,5.37
2022-09-24T01:59:20.737Z,5.90
2022-09-24T02:01:56.496Z,7.80
2022-09-24T02:04:27.083Z,7.00
2022-09-24T02:06:57.926Z,6.30
2022-09-24T02:09:31.374Z,6.07
2022-09-24T02:12:02.797Z,6.03
2022-09-24T02:14:33.801Z,6.67
2022-09-24T02:17:05.117Z,5.03
2022-09-24T02:19:37.544Z,5.13
2022-09-24T02:22:06.902Z,6.77
2022-09-24T02:24:38.703Z,4.87
2022-09-24T02:27:07.165Z,7.43
2022-09-24T02:29:35.873Z,5.07
2022-09-24T02:32:06.517Z,5.40
2022-09-24T02:34:38.431Z,5.73
2022-09-24T02:37:09.435Z,5.87
2022-09-24T02:39:37.890Z,5.33
2022-09-24T02:42:07.886Z,4.67
2022-09-24T02:44:37.190Z,6.77
2022-09-24T02:47:07.622Z,5.43
2022-09-24T02:49:36.141Z,4.83
2022-09-24T02:52:04.779Z,4.37
2022-09-24T02:54:33.315Z,4.40
2022-09-24T02:57:01.737Z,4.83
2022-09-24T02:59:30.106Z,6.53
2022-09-24T03:01:58.744Z,4.40
2022-09-24T03:04:29.460Z,5.80
2022-09-24T03:06:57.880Z,4.60
2022-09-24T03:09:26.307Z,8.10
2022-09-24T03:11:54.941Z,4.97
2022-09-24T03:14:23.584Z,5.13
2022-09-24T03:16:51.980Z,5.00
2022-09-24T03:19:20.398Z,7.37
2022-09-24T03:21:50.144Z,5.63
2022-09-24T03:24:18.581Z,4.70
2022-09-24T03:26:46.988Z,4.60
2022-09-24T03:29:15.634Z,4.47
2022-09-24T03:31:43.300Z,4.73
2022-09-24T03:34:12.054Z,5.10
2022-09-24T03:36:40.541Z,5.53
2022-09-24T03:39:10.336Z,6.10
2022-09-24T03:41:38.761Z,5.60
2022-09-24T03:44:07.689Z,4.03
2022-09-24T03:46:36.355Z,6.47
2022-09-24T03:49:04.824Z,4.03
2022-09-24T03:51:33.301Z,3.77
2022-09-24T03:54:01.791Z,4.47
2022-09-24T03:56:31.554Z,4.90
2022-09-24T03:59:00.006Z,6.20
2022-09-24T04:01:29.172Z,6.97
2022-09-24T04:03:57.630Z,6.83
2022-09-24T04:06:27.101Z,5.40
2022-09-24T04:08:55.617Z,6.70
2022-09-24T04:11:24.112Z,5.73
2022-09-24T04:13:54.043Z,5.73
2022-09-24T04:16:22.801Z,6.47
2022-09-24T04:18:51.369Z,5.77
2022-09-24T04:21:19.908Z,4.93
2022-09-24T04:23:48.448Z,7.13
2022-09-24T04:26:17.139Z,6.00
2022-09-24T04:28:45.618Z,5.33
2022-09-24T04:31:15.542Z,7.50
2022-09-24T04:33:44.037Z,5.27
2022-09-24T04:36:13.544Z,4.53
2022-09-24T04:38:42.303Z,6.83
2022-09-24T04:41:10.812Z,6.93
2022-09-24T04:43:39.512Z,5.73
2022-09-24T04:46:09.317Z,6.37
2022-09-24T04:48:39.399Z,5.73
2022-09-24T04:51:09.111Z,5.63
2022-09-24T04:53:38.353Z,5.17
2022-09-24T04:56:11.294Z,6.87
2022-09-24T04:58:39.874Z,8.33
2022-09-24T05:01:08.885Z,5.37
2022-09-24T05:03:39.598Z,5.50
2022-09-24T05:06:08.110Z,6.13
2022-09-24T05:08:36.484Z,5.70
2022-09-24T05:11:05.039Z,6.63
2022-09-24T05:13:33.919Z,6.43
2022-09-24T05:16:02.876Z,9.20
2022-09-24T05:18:31.485Z,7.00
2022-09-24T05:21:01.230Z,5.00
2022-09-24T05:23:29.642Z,6.20
2022-09-24T05:26:15.619Z,5.57
2022-09-24T05:28:44.147Z,6.43
2022-09-24T05:31:12.699Z,6.93
2022-09-24T05:33:41.247Z,6.90
2022-09-24T05:36:12.371Z,6.17
2022-09-24T05:38:41.925Z,5.43
2022-09-24T05:41:10.788Z,5.63
2022-09-24T05:43:39.281Z,7.33
2022-09-24T05:46:08.171Z,5.70
2022-09-24T05:48:36.808Z,5.17
2022-09-24T05:51:05.576Z,5.60
2022-09-24T05:53:35.570Z,5.33
2022-09-24T05:56:04.035Z,7.63
2022-09-24T05:58:32.693Z,6.00
2022-09-24T06:01:01.677Z,5.93
2022-09-24T06:03:31.767Z,5.47
2022-09-24T06:06:02.166Z,7.33
2022-09-24T06:08:32.299Z,6.17
2022-09-24T06:11:03.033Z,6.53
2022-09-24T06:13:31.624Z,6.43
2022-09-24T06:16:05.717Z,5.73
2022-09-24T06:18:36.868Z,7.07
2022-09-24T06:21:07.801Z,8.53
2022-09-24T06:23:36.626Z,7.70
2022-09-24T06:26:08.252Z,6.40
2022-09-24T06:28:36.798Z,6.40
2022-09-24T06:31:07.592Z,5.30
2022-09-24T06:33:37.642Z,4.80
2022-09-24T06:36:06.417Z,7.10
2022-09-24T06:38:35.361Z,5.00
2022-09-24T06:41:06.550Z,8.50
2022-09-24T06:43:35.429Z,11.30
2022-09-24T06:46:04.901Z,7.57
2022-09-24T06:48:33.736Z,7.50
2022-09-24T06:51:02.198Z,10.53
2022-09-24T06:53:30.700Z,6.30
2022-09-24T06:56:00.773Z,7.17
2022-09-24T06:58:31.867Z,6.80
2022-09-24T07:01:02.412Z,6.23
2022-09-24T07:03:32.380Z,6.53
2022-09-24T07:06:02.480Z,6.90
2022-09-24T07:08:31.424Z,6.90
2022-09-24T07:11:02.235Z,9.40
2022-09-24T07:13:32.080Z,7.20
2022-09-24T07:16:01.471Z,6.50
2022-09-24T07:18:30.043Z,8.00
2022-09-24T07:20:58.555Z,8.30
2022-09-24T07:23:27.837Z,8.13
2022-09-24T07:25:57.019Z,7.17
2022-09-24T07:28:25.567Z,6.03
2022-09-24T07:30:59.601Z,9.90
2022-09-24T07:33:28.354Z,7.43
2022-09-24T07:35:56.890Z,8.13
2022-09-24T07:38:25.378Z,10.40
2022-09-24T07:40:58.972Z,8.90
2022-09-24T07:43:28.521Z,8.40
2022-09-24T07:45:58.397Z,7.57
2022-09-24T07:48:26.980Z,8.07
2022-09-24T07:50:55.874Z,7.37
2022-09-24T07:53:24.621Z,6.97
2022-09-24T07:55:53.138Z,9.40
2022-09-24T07:58:21.925Z,7.87
2022-09-24T08:00:50.245Z,8.20
2022-09-24T08:03:20.519Z,8.57
2022-09-24T08:05:49.227Z,15.10
2022-09-24T08:08:20.548Z,12.17
2022-09-24T08:10:49.013Z,6.80
2022-09-24T08:13:17.723Z,13.33
2022-09-24T08:15:46.212Z,7.27
2022-09-24T08:18:14.653Z,6.80
2022-09-24T08:20:44.389Z,6.63
2022-09-24T08:23:12.783Z,8.90
2022-09-24T08:25:41.258Z,6.33
2022-09-24T08:28:12.078Z,7.93
2022-09-24T08:30:40.902Z,8.90
2022-09-24T08:33:09.617Z,7.77
2022-09-24T08:35:40.080Z,10.57
2022-09-24T08:38:10.397Z,7.30
2022-09-24T08:40:40.897Z,7.47
2022-09-24T08:43:20.751Z,8.27
2022-09-24T08:46:17.014Z,7.77
2022-09-24T08:48:49.153Z,7.27
2022-09-24T08:51:19.642Z,7.40
2022-09-24T08:53:53.656Z,10.33
2022-09-24T08:56:25.995Z,7.80
2022-09-24T08:58:58.169Z,8.37
2022-09-24T09:01:34.452Z,10.97
2022-09-24T09:04:06.298Z,9.10
2022-09-24T09:06:55.922Z,9.53
2022-09-24T09:09:27.851Z,10.33
2022-09-24T09:12:02.034Z,9.43
2022-09-24T09:14:41.647Z,7.47
2022-09-24T09:17:28.467Z,10.47
2022-09-24T09:19:58.462Z,12.83
2022-09-24T09:22:30.433Z,10.43
2022-09-24T09:25:04.799Z,12.17
2022-09-24T09:27:33.328Z,11.90
2022-09-24T09:30:08.125Z,10.97
2022-09-24T09:32:49.052Z,11.63
2022-09-24T09:35:21.678Z,13.73
2022-09-24T09:37:54.699Z,11.23
2022-09-24T09:40:33.716Z,14.43
2022-09-24T09:43:04.818Z,13.80
2022-09-24T09:45:39.193Z,11.57
2022-09-24T09:48:07.761Z,17.00
2022-09-24T09:50:39.607Z,15.27
2022-09-24T09:53:20.260Z,11.70
2022-09-24T09:55:55.295Z,16.77
2022-09-24T09:58:25.119Z,17.37
2022-09-24T10:00:54.494Z,15.73
2022-09-24T10:03:25.954Z,17.07
2022-09-24T10:05:56.838Z,14.80
2022-09-24T10:08:25.937Z,15.37
2022-09-24T10:10:56.328Z,13.70
2022-09-24T10:13:25.401Z,15.33
2022-09-24T10:15:55.119Z,10.53
2022-09-24T10:18:30.263Z,13.13
2022-09-24T10:21:03.760Z,14.40
2022-09-24T10:23:36.135Z,13.83
2022-09-24T10:26:06.563Z,21.07
2022-09-24T10:28:53.559Z,14.73
2022-09-24T10:31:23.869Z,14.53
2022-09-24T10:33:55.567Z,14.60
2022-09-24T10:36:26.301Z,14.97
2022-09-24T10:39:04.643Z,14.33
2022-09-24T10:41:34.709Z,16.13
2022-09-24T10:44:06.369Z,15.70
2022-09-24T10:46:52.375Z,14.20
2022-09-24T10:49:31.939Z,18.63
2022-09-24T10:52:10.135Z,14.47
2022-09-24T10:54:49.889Z,13.37
2022-09-24T10:57:29.501Z,14.37
2022-09-24T11:00:05.270Z,14.63
2022-09-24T11:02:58.032Z,12.30
2022-09-24T11:05:31.522Z,14.73
2022-09-24T11:08:05.333Z,14.87
2022-09-24T11:10:51.352Z,14.87
2022-09-24T11:13:27.037Z,14.00
2022-09-24T11:16:10.753Z,15.60
2022-09-24T11:18:45.965Z,16.13
2022-09-24T11:21:21.327Z,13.67
2022-09-24T11:24:03.718Z,14.93
2022-09-24T11:26:41.075Z,17.53
2022-09-24T11:29:21.083Z,15.40
2022-09-24T11:31:58.109Z,16.47
2022-09-24T11:34:50.586Z,15.40
2022-09-24T11:37:29.114Z,17.77
2022-09-24T11:40:16.292Z,16.53
2022-09-24T11:42:51.194Z,16.30
2022-09-24T11:45:41.178Z,15.90
2022-09-24T11:48:22.626Z,16.30
2022-09-24T11:50:59.475Z,14.37
2022-09-24T11:53:35.054Z,16.77
2022-09-24T11:56:12.895Z,15.93
2022-09-24T11:58:45.213Z,16.87
2022-09-24T12:01:18.093Z,15.47
2022-09-24T12:03:51.999Z,15.70
2022-09-24T12:06:22.996Z,16.37
2022-09-24T12:08:55.348Z,15.20
2022-09-24T12:11:28.246Z,17.03
2022-09-24T12:13:59.537Z,11.97
2022-09-24T12:16:33.148Z,16.63
2022-09-24T12:19:06.094Z,16.00
2022-09-24T12:21:36.135Z,16.30
2022-09-24T12:24:08.817Z,17.57
2022-09-24T12:26:40.555Z,16.83
2022-09-24T12:29:42.693Z,20.77
2022-09-24T12:32:36.432Z,19.23
2022-09-24T12:35:12.175Z,16.37
2022-09-24T12:37:42.111Z,16.73
2022-09-24T12:40:27.082Z,16.17
2022-09-24T12:42:59.359Z,15.07
2022-09-24T12:45:28.560Z,16.80
2022-09-24T12:47:59.902Z,16.77
2022-09-24T12:50:30.574Z,15.20
2022-09-24T12:52:59.670Z,17.37
2022-09-24T12:55:29.881Z,16.73
2022-09-24T12:58:01.117Z,17.03
2022-09-24T13:00:39.215Z,17.63
2022-09-24T13:03:31.908Z,17.87
2022-09-24T13:06:00.661Z,17.70
2022-09-24T13:08:37.242Z,17.87
2022-09-24T13:11:26.018Z,16.00
2022-09-24T13:14:00.371Z,19.47
2022-09-24T13:16:29.370Z,18.23
2022-09-24T13:19:02.755Z,18.80
2022-09-24T13:21:32.029Z,18.70
2022-09-24T13:24:12.295Z,18.90
2022-09-24T13:26:41.117Z,18.00
2022-09-24T13:29:26.004Z,17.07
2022-09-24T13:31:57.748Z,16.17
2022-09-24T13:34:28.991Z,16.00
2022-09-24T13:37:00.572Z,13.83
2022-09-24T13:39:34.913Z,17.97
2022-09-24T13:42:09.243Z,15.83
2022-09-24T13:44:44.679Z,16.50
2022-09-24T13:47:16.799Z,17.77
2022-09-24T13:49:48.436Z,14.50
2022-09-24T13:52:26.529Z,18.67
2022-09-24T13:54:59.158Z,16.63
2022-09-24T13:57:31.438Z,17.37
2022-09-24T14:00:16.271Z,16.97
2022-09-24T14:02:46.369Z,17.33
2022-09-24T14:05:18.934Z,17.50
2022-09-24T14:07:57.563Z,17.67
2022-09-24T14:10:26.619Z,18.80
2022-09-24T14:13:13.753Z,16.67
2022-09-24T14:15:52.197Z,17.17
2022-09-24T14:18:20.999Z,17.07
2022-09-24T14:20:55.038Z,17.27
2022-09-24T14:23:25.640Z,18.27
2022-09-24T14:25:54.999Z,20.00
2022-09-24T14:28:23.968Z,18.93
2022-09-24T14:30:54.206Z,18.97
2022-09-24T14:33:26.089Z,18.57
2022-09-24T14:35:57.375Z,20.30
2022-09-24T14:38:29.436Z,21.03
2022-09-24T14:41:00.725Z,22.97
2022-09-24T14:43:31.582Z,13.40
2022-09-24T14:46:04.554Z,18.37
2022-09-24T14:48:34.637Z,19.90
2022-09-24T14:51:04.562Z,21.27
2022-09-24T14:53:35.369Z,25.30
2022-09-24T14:56:20.152Z,21.90
2022-09-24T14:58:49.115Z,23.83
2022-09-24T15:01:18.433Z,25.23
2022-09-24T15:03:50.083Z,25.50
2022-09-24T15:06:22.382Z,26.87
2022-09-24T15:08:59.126Z,23.13
2022-09-24T15:11:29.035Z,22.60
2022-09-24T15:14:02.329Z,20.20
2022-09-24T15:16:33.566Z,19.90
2022-09-24T15:19:17.538Z,20.67
2022-09-24T15:21:48.562Z,19.30
2022-09-24T15:24:17.268Z,24.57
2022-09-24T15:26:47.781Z,18.30
2022-09-24T15:29:24.325Z,16.97
2022-09-24T15:31:53.041Z,18.00
2022-09-24T15:34:21.643Z,19.17
2022-09-24T15:36:55.314Z,17.13
2022-09-24T15:39:26.088Z,18.93
2022-09-24T15:41:54.505Z,16.97
2022-09-24T15:44:28.380Z,16.87
2022-09-24T15:46:58.426Z,15.60
2022-09-24T15:49:26.931Z,16.90
2022-09-24T15:52:01.511Z,15.67
2022-09-24T15:54:29.958Z,16.07
2022-09-24T15:56:58.836Z,16.43
2022-09-24T15:59:28.785Z,14.97
2022-09-24T16:02:00.885Z,16.33
2022-09-24T16:04:29.793Z,14.50
2022-09-24T16:07:00.018Z,13.93
2022-09-24T16:09:28.459Z,15.07
2022-09-24T16:11:59.148Z,15.80
2022-09-24T16:14:28.206Z,14.33
2022-09-24T16:16:56.692Z,14.47
2022-09-24T16:19:25.280Z,16.27
2022-09-24T16:21:53.665Z,16.43
2022-09-24T16:24:23.667Z,16.03
2022-09-24T16:26:52.080Z,16.23
2022-09-24T16:29:21.974Z,16.43
2022-09-24T16:31:50.780Z,14.63
2022-09-24T16:34:19.258Z,15.20
2022-09-24T16:36:48.376Z,14.37
2022-09-24T16:39:16.826Z,19.77
2022-09-24T16:41:48.743Z,14.77
2022-09-24T16:44:17.329Z,15.80
2022-09-24T16:46:45.954Z,15.40
2022-09-24T16:49:14.409Z,15.63
2022-09-24T16:51:45.132Z,19.23
2022-09-24T16:54:13.924Z,16.17
2022-09-24T16:56:42.599Z,18.47
2022-09-24T16:59:12.683Z,16.43
2022-09-24T17:01:42.500Z,18.70
2022-09-24T17:04:11.128Z,18.77
2022-09-24T17:06:39.602Z,19.53
2022-09-24T17:09:25.773Z,16.87
2022-09-24T17:11:54.168Z,18.33
2022-09-24T17:14:25.223Z,16.83
2022-09-24T17:16:53.687Z,18.30
2022-09-24T17:19:22.182Z,17.33
2022-09-24T17:21:52.217Z,16.43
2022-09-24T17:24:22.018Z,18.33
2022-09-24T17:26:50.705Z,17.47
2022-09-24T17:29:20.742Z,16.33
2022-09-24T17:31:50.614Z,15.50
2022-09-24T17:34:19.323Z,17.93
2022-09-24T17:36:47.826Z,17.20
2022-09-24T17:39:16.394Z,17.87
2022-09-24T17:41:45.054Z,17.63
2022-09-24T17:44:13.792Z,14.07
2022-09-24T17:46:45.674Z,18.90
2022-09-24T17:49:16.820Z,22.60
2022-09-24T17:51:49.371Z,21.43
2022-09-24T17:54:21.473Z,21.77
2022-09-24T17:56:49.997Z,22.90
2022-09-24T17:59:20.844Z,25.57
2022-09-24T18:01:52.097Z,22.07
2022-09-24T18:04:22.793Z,19.93
2022-09-24T18:06:51.361Z,17.20
2022-09-24T18:09:20.061Z,22.80
2022-09-24T18:11:50.077Z,20.70
2022-09-24T18:14:19.699Z,14.63
2022-09-24T18:16:49.085Z,22.60
2022-09-24T18:19:18.046Z,22.13
2022-09-24T18:21:49.165Z,23.17
2022-09-24T18:24:17.608Z,21.87
2022-09-24T18:26:51.242Z,22.37
2022-09-24T18:29:21.435Z,17.90
2022-09-24T18:31:51.654Z,19.27
2022-09-24T18:34:20.249Z,21.27
2022-09-24T18:36:50.029Z,22.40
2022-09-24T18:39:24.788Z,21.50
2022-09-24T18:41:54.004Z,19.37
2022-09-24T18:44:22.682Z,22.93
2022-09-24T18:46:51.124Z,22.33
2022-09-24T18:49:20.324Z,25.03
2022-09-24T18:51:52.050Z,19.67
2022-09-24T18:54:20.483Z,23.97
2022-09-24T18:56:49.089Z,27.73
2022-09-24T18:59:19.310Z,23.73
2022-09-24T19:01:49.376Z,19.73
2022-09-24T19:04:18.720Z,24.37
2022-09-24T19:06:49.754Z,25.47
2022-09-24T19:09:20.584Z,26.60
2022-09-24T19:11:49.419Z,26.83
2022-09-24T19:14:19.005Z,22.00
2022-09-24T19:16:48.279Z,23.23
2022-09-24T19:19:17.108Z,22.63
2022-09-24T19:21:45.625Z,21.43
2022-09-24T19:24:14.134Z,20.60
2022-09-24T19:26:44.406Z,22.47
2022-09-24T19:29:13.099Z,20.87
2022-09-24T19:31:43.105Z,22.07
2022-09-24T19:34:13.156Z,25.97
2022-09-24T19:36:44.255Z,22.07
2022-09-24T19:39:14.628Z,23.13
2022-09-24T19:41:45.099Z,22.63
2022-09-24T19:44:13.999Z,22.00
2022-09-24T19:46:42.730Z,22.40
2022-09-24T19:49:11.172Z,22.63
2022-09-24T19:51:40.454Z,21.33
2022-09-24T19:54:09.642Z,23.40
2022-09-24T19:56:38.580Z,23.67
2022-09-24T19:59:11.975Z,24.60
2022-09-24T20:01:41.286Z,23.97
2022-09-24T20:04:09.835Z,23.93
2022-09-24T20:06:39.015Z,23.60
2022-09-24T20:09:10.899Z,29.13
2022-09-24T20:11:39.509Z,23.80
2022-09-24T20:14:11.383Z,25.07
2022-09-24T20:16:42.736Z,22.70
2022-09-24T20:19:13.102Z,22.57
2022-09-24T20:21:41.568Z,25.67
2022-09-24T20:24:13.591Z,23.10
2022-09-24T20:26:59.992Z,28.33
2022-09-24T20:29:29.786Z,20.80
2022-09-24T20:31:58.445Z,24.83
2022-09-24T20:34:33.580Z,22.37
2022-09-24T20:37:03.018Z,20.80
2022-09-24T20:39:32.419Z,24.67
2022-09-24T20:42:03.737Z,24.73
2022-09-24T20:44:33.963Z,23.77
2022-09-24T20:47:02.367Z,23.67
2022-09-24T20:49:30.792Z,21.47
2022-09-24T20:51:59.282Z,22.87
2022-09-24T20:54:29.102Z,24.67
2022-09-24T20:56:57.677Z,25.00
2022-09-24T20:59:27.151Z,20.20
2022-09-24T21:01:57.161Z,27.17
2022-09-24T21:04:26.641Z,26.53
2022-09-24T21:06:55.643Z,23.97
2022-09-24T21:09:24.092Z,23.77
2022-09-24T21:11:54.745Z,22.83
2022-09-24T21:14:23.432Z,24.93
2022-09-24T21:16:55.119Z,24.07
2022-09-24T21:19:25.810Z,25.80
2022-09-24T21:21:54.247Z,27.03
2022-09-24T21:24:27.660Z,26.17
2022-09-24T21:27:00.135Z,27.00
2022-09-24T21:29:29.032Z,23.20
2022-09-24T21:32:01.754Z,26.07
2022-09-24T21:34:33.619Z,23.40
2022-09-24T21:37:02.009Z,25.13
2022-09-24T21:39:30.444Z,23.10
2022-09-24T21:41:59.366Z,25.33
2022-09-24T21:44:30.941Z,23.23
2022-09-24T21:46:59.371Z,22.93
2022-09-24T21:49:27.855Z,24.80
2022-09-24T21:51:57.682Z,26.33
2022-09-24T21:54:26.134Z,24.87
2022-09-24T21:56:55.175Z,24.93
2022-09-24T21:59:40.958Z,24.33
2022-09-24T22:02:10.222Z,27.17
2022-09-24T22:04:39.217Z,28.80
2022-09-24T22:07:09.083Z,27.93
2022-09-24T22:09:37.779Z,25.97
2022-09-24T22:12:06.729Z,24.37
2022-09-24T22:14:35.227Z,23.23
2022-09-24T22:17:07.524Z,24.37
2022-09-24T22:19:36.026Z,28.53
2022-09-24T22:22:04.586Z,24.20
2022-09-24T22:24:34.526Z,24.67
2022-09-24T22:27:03.027Z,24.23
2022-09-24T22:29:31.665Z,25.00
2022-09-24T22:32:00.072Z,27.73
2022-09-24T22:34:46.181Z,27.13
2022-09-24T22:37:14.618Z,25.57
2022-09-24T22:39:44.321Z,22.63
2022-09-24T22:42:13.477Z,23.57
2022-09-24T22:44:41.939Z,24.23
2022-09-24T22:47:10.310Z,24.70
2022-09-24T22:49:38.734Z,24.93
2022-09-24T22:52:07.088Z,22.07
2022-09-24T22:54:35.430Z,27.27
2022-09-24T22:57:05.395Z,25.27
2022-09-24T22:59:34.044Z,26.13
2022-09-24T23:02:02.359Z,22.80
2022-09-24T23:04:31.082Z,25.60
2022-09-24T23:06:59.533Z,25.27
2022-09-24T23:09:28.099Z,18.60
2022-09-24T23:11:57.119Z,15.53
2022-09-24T23:14:26.885Z,23.53
2022-09-24T23:16:58.690Z,21.33
2022-09-24T23:19:47.653Z,22.23
2022-09-24T23:22:16.241Z,24.23
2022-09-24T23:24:46.309Z,25.93
2022-09-24T23:27:16.656Z,26.70
2022-09-24T23:29:46.720Z,26.03
2022-09-24T23:32:15.840Z,26.67
2022-09-24T23:34:44.249Z,25.87
2022-09-24T23:37:12.836Z,24.10
2022-09-24T23:39:41.351Z,26.50
2022-09-24T23:42:09.807Z,25.20
2022-09-24T23:44:38.769Z,20.47
2022-09-24T23:47:08.597Z,18.03
2022-09-24T23:49:37.019Z,19.53
2022-09-24T23:52:05.853Z,25.83
2022-09-24T23:54:37.487Z,19.13
2022-09-24T23:57:06.421Z,29.90
2022-09-24T23:59:35.251Z,23.30
